Time;durP1;ratioP1;P1;durP2;ratioP2;P2;SDS_P1;SDS_P2;PMS_P1;PMS_P2;Temp;Humidity;BMP_temperature;BMP_pressure;BME280_temperature;BME280_humidity;BME280_pressure;Samples;Min_cycle;Max_cycle;Signal;HPM_P1;HPM_P2
2023/10/21 00:02:04;;;;;;;12.68;4.63;;;;;;;11.73;100.00;98278.78;5035145;28;20483;-61
2023/10/21 00:04:30;;;;;;;9.23;4.25;;;;;;;11.74;100.00;98278.75;5035273;28;20030;-61
2023/10/21 00:06:56;;;;;;;7.55;4.10;;;;;;;11.72;100.00;98277.06;5035380;28;20518;-61
2023/10/21 00:09:21;;;;;;;9.85;4.25;;;;;;;11.75;100.00;98283.13;5035224;28;20052;-61
2023/10/21 00:11:47;;;;;;;6.35;3.88;;;;;;;11.71;100.00;98280.66;5035232;28;20029;-61
2023/10/21 00:14:12;;;;;;;7.18;4.30;;;;;;;11.76;100.00;98284.84;5035001;28;20471;-61
2023/10/21 00:16:37;;;;;;;9.15;3.72;;;;;;;11.78;100.00;98284.81;5035152;28;20034;-61
2023/10/21 00:19:03;;;;;;;10.07;4.32;;;;;;;11.76;100.00;98297.22;5034915;28;20025;-61
2023/10/21 00:21:29;;;;;;;6.53;4.30;;;;;;;11.73;100.00;98299.97;5034746;28;20045;-61
2023/10/21 00:23:54;;;;;;;8.18;4.30;;;;;;;11.74;100.00;98299.06;5034937;28;20028;-61
2023/10/21 00:26:20;;;;;;;8.95;4.35;;;;;;;11.72;100.00;98308.81;5034869;28;20029;-61
2023/10/21 00:28:45;;;;;;;8.52;3.97;;;;;;;11.70;100.00;98308.88;5034807;28;20030;-61
2023/10/21 00:31:10;;;;;;;11.07;3.90;;;;;;;11.71;100.00;98318.53;5034870;28;20065;-61
2023/10/21 00:33:36;;;;;;;9.63;3.95;;;;;;;11.72;100.00;98314.97;5034828;28;20392;-61
2023/10/21 00:36:01;;;;;;;9.07;4.20;;;;;;;11.72;100.00;98322.91;5034880;28;20060;-61
2023/10/21 00:38:27;;;;;;;7.97;3.92;;;;;;;11.71;100.00;98322.97;5034438;28;20107;-61
2023/10/21 00:40:54;;;;;;;9.02;4.05;;;;;;;11.72;100.00;98337.91;5034602;28;20036;-61
2023/10/21 00:43:34;;;;;;;7.32;3.78;;;;;;;11.71;100.00;98337.06;5034857;28;20385;-61
2023/10/21 00:46:16;;;;;;;6.55;3.78;;;;;;;11.71;100.00;98338.84;5034414;28;20039;-61
2023/10/21 00:48:42;;;;;;;7.40;4.30;;;;;;;11.68;100.00;98344.22;5034536;28;20445;-61
2023/10/21 00:51:09;;;;;;;6.18;3.80;;;;;;;11.69;100.00;98351.25;5034658;28;20033;-61
2023/10/21 00:53:35;;;;;;;8.45;4.20;;;;;;;11.68;100.00;98355.69;5034196;28;20499;-61
2023/10/21 00:56:01;;;;;;;8.95;4.18;;;;;;;11.69;100.00;98360.06;5034312;28;20518;-61
2023/10/21 00:58:30;;;;;;;9.55;4.30;;;;;;;11.70;100.00;98358.28;5034102;28;20029;-61
2023/10/21 01:00:57;;;;;;;10.65;4.57;;;;;;;11.69;100.00;98364.47;5034098;28;20032;-61
2023/10/21 01:03:26;;;;;;;6.10;4.18;;;;;;;11.68;100.00;98368.03;5034423;28;20018;-61
2023/10/21 01:05:51;;;;;;;8.90;4.32;;;;;;;11.68;100.00;98360.97;5034223;28;20108;-61
2023/10/21 01:08:17;;;;;;;7.65;4.20;;;;;;;11.67;100.00;98369.81;5033932;28;20112;-61
2023/10/21 01:10:42;;;;;;;6.85;4.25;;;;;;;11.67;100.00;98371.59;5034023;28;20467;-61
2023/10/21 01:13:08;;;;;;;10.70;4.63;;;;;;;11.66;100.00;98372.53;5033956;28;20030;-61
2023/10/21 01:15:33;;;;;;;11.27;4.60;;;;;;;11.66;100.00;98372.53;5033873;28;20037;-61
2023/10/21 01:17:58;;;;;;;11.95;4.95;;;;;;;11.65;100.00;98374.31;5033785;28;20026;-61
2023/10/21 01:20:24;;;;;;;8.73;5.15;;;;;;;11.66;100.00;98370.75;5033584;28;20555;-61
2023/10/21 01:22:49;;;;;;;9.20;4.88;;;;;;;11.65;100.00;98382.25;5034003;28;20045;-61
2023/10/21 01:25:14;;;;;;;10.30;5.10;;;;;;;11.65;100.00;98382.25;5033965;28;20560;-61
2023/10/21 01:27:40;;;;;;;9.70;4.85;;;;;;;11.64;100.00;98382.28;5033875;28;20041;-61
2023/10/21 01:30:06;;;;;;;9.20;4.88;;;;;;;11.63;100.00;98381.41;5033932;28;20029;-61
2023/10/21 01:32:34;;;;;;;9.55;5.10;;;;;;;11.66;100.00;98391.91;5033466;28;20041;-61
2023/10/21 01:35:00;;;;;;;9.95;5.05;;;;;;;11.64;100.00;98401.66;5033517;28;20490;-61
2023/10/21 01:37:25;;;;;;;11.75;5.20;;;;;;;11.66;100.00;98391.06;5033238;28;20030;-61
2023/10/21 01:39:50;;;;;;;10.50;4.97;;;;;;;11.68;100.00;98402.44;5033411;28;20029;-61
2023/10/21 01:42:16;;;;;;;8.98;5.50;;;;;;;11.69;100.00;98404.16;5033302;28;20029;-61
2023/10/21 01:44:42;;;;;;;8.02;5.30;;;;;;;11.68;100.00;98407.72;5033366;28;20547;-61
2023/10/21 01:47:07;;;;;;;7.53;4.95;;;;;;;11.69;100.00;98399.75;5033422;28;20128;-61
2023/10/21 01:49:32;;;;;;;8.50;5.07;;;;;;;11.69;100.00;98405.03;5033277;28;20038;-61
2023/10/21 01:51:58;;;;;;;9.55;4.88;;;;;;;11.74;100.00;98402.25;5031955;28;20061;-61
2023/10/21 01:54:23;;;;;;;8.10;4.82;;;;;;;11.76;100.00;98408.34;5033106;28;20029;-61
2023/10/21 01:56:49;;;;;;;12.55;5.05;;;;;;;11.79;100.00;98409.09;5031980;28;20082;-61
2023/10/21 01:59:17;;;;;;;12.95;5.10;;;;;;;11.81;100.00;98410.81;5033270;28;20104;-61
2023/10/21 02:01:42;;;;;;;9.63;5.30;;;;;;;11.81;100.00;98413.47;5032949;28;20086;-61
2023/10/21 02:04:08;;;;;;;10.43;5.13;;;;;;;11.82;100.00;98421.38;5032602;28;20029;-61
2023/10/21 02:06:34;;;;;;;9.68;5.13;;;;;;;11.83;100.00;98424.91;5033259;28;20029;-61
2023/10/21 02:08:59;;;;;;;14.45;5.18;;;;;;;11.82;100.00;98426.66;5031589;28;20353;-61
2023/10/21 02:11:24;;;;;;;10.23;5.35;;;;;;;11.84;100.00;98419.56;5033033;28;20124;-61
2023/10/21 02:13:50;;;;;;;7.50;4.97;;;;;;;11.84;100.00;98434.56;5032910;28;20037;-61
2023/10/21 02:16:16;;;;;;;8.85;4.97;;;;;;;11.81;100.00;98427.56;5032658;28;20028;-61
2023/10/21 02:18:42;;;;;;;8.20;5.18;;;;;;;11.84;100.00;98430.16;5032772;28;20041;-61
2023/10/21 02:21:07;;;;;;;10.25;5.70;;;;;;;11.84;100.00;98435.44;5032636;28;20038;-61
2023/10/21 02:23:33;;;;;;;16.85;5.30;;;;;;;11.85;100.00;98444.25;5033090;28;20475;-61
2023/10/21 02:26:06;;;;;;;7.32;4.80;;;;;;;11.85;100.00;98446.88;5032820;28;20470;-61
2023/10/21 02:28:32;;;;;;;9.40;5.10;;;;;;;11.85;100.00;98454.81;5032770;28;20029;-61
2023/10/21 02:31:01;;;;;;;8.25;5.20;;;;;;;11.85;100.00;98458.34;5032598;28;20076;-61
2023/10/21 02:33:27;;;;;;;10.40;4.95;;;;;;;11.85;100.00;98458.34;5032664;28;20026;-61
2023/10/21 02:35:53;;;;;;;12.82;4.82;;;;;;;11.88;100.00;98465.31;5032646;28;20033;-61
2023/10/21 02:38:19;;;;;;;11.02;5.00;;;;;;;11.86;100.00;98456.53;5032288;28;20598;-61
2023/10/21 02:40:46;;;;;;;9.57;4.88;;;;;;;11.83;100.00;98459.31;5032505;28;20329;-61
2023/10/21 02:43:11;;;;;;;8.65;5.50;;;;;;;11.84;100.00;98467.19;5032831;28;20030;-61
2023/10/21 02:45:36;;;;;;;10.70;4.90;;;;;;;11.86;100.00;98464.47;5032565;28;20053;-61
2023/10/21 02:48:02;;;;;;;12.18;5.03;;;;;;;11.85;100.00;98468.91;5032573;28;20071;-61
2023/10/21 02:50:27;;;;;;;8.38;5.20;;;;;;;11.84;100.00;98468.97;5032458;28;20033;-61
2023/10/21 02:52:53;;;;;;;7.03;4.65;;;;;;;11.84;100.00;98466.34;5032536;28;20021;-61
2023/10/21 02:55:18;;;;;;;9.85;4.70;;;;;;;11.83;100.00;98470.75;5032451;28;20026;-61
2023/10/21 02:57:44;;;;;;;9.27;4.60;;;;;;;11.84;100.00;98479.56;5032616;28;20033;-61
2023/10/21 03:00:15;;;;;;;13.70;5.20;;;;;;;11.86;100.00;98477.72;5032468;28;20022;-61
2023/10/21 03:02:42;;;;;;;10.75;4.80;;;;;;;11.86;100.00;98481.25;5032168;28;20033;-61
2023/10/21 03:05:07;;;;;;;8.77;4.63;;;;;;;11.85;100.00;98483.94;5032195;28;20056;-61
2023/10/21 03:07:33;;;;;;;7.78;4.65;;;;;;;11.84;100.00;98485.72;5032503;28;20026;-61
2023/10/21 03:10:03;;;;;;;10.77;4.55;;;;;;;11.86;100.00;98489.19;5032640;28;20026;-61
2023/10/21 03:12:29;;;;;;;9.32;4.50;;;;;;;11.86;100.00;98502.44;5032291;28;20128;-61
2023/10/21 03:14:58;;;;;;;13.23;4.60;;;;;;;11.89;100.00;98512.88;5032074;28;20438;-61
2023/10/21 03:17:23;;;;;;;9.25;4.90;;;;;;;11.87;100.00;98506.78;5035234;28;20091;-61
2023/10/21 03:19:49;;;;;;;8.60;4.20;;;;;;;11.87;100.00;98508.59;5035792;28;20472;-61
2023/10/21 03:22:15;;;;;;;10.23;4.60;;;;;;;11.87;100.00;98506.78;5035861;28;20037;-61
2023/10/21 03:24:41;;;;;;;9.82;4.40;;;;;;;11.86;100.00;98502.44;5036231;28;20036;-61
2023/10/21 03:27:06;;;;;;;6.15;4.10;;;;;;;11.88;100.00;98505.88;5035808;28;20153;-61
2023/10/21 03:29:32;;;;;;;10.10;4.20;;;;;;;11.87;100.00;98516.53;5035731;28;20504;-61
2023/10/21 03:31:57;;;;;;;7.57;4.15;;;;;;;11.87;100.00;98514.72;5035705;28;20029;-61
2023/10/21 03:34:22;;;;;;;9.07;4.40;;;;;;;11.87;100.00;98516.53;5035818;28;20068;-61
2023/10/21 03:36:48;;;;;;;12.30;4.40;;;;;;;11.88;100.00;98521.75;5034438;28;20017;-61
2023/10/21 03:39:14;;;;;;;8.65;4.07;;;;;;;11.90;100.00;98524.34;5035462;28;20425;-61
2023/10/21 03:41:39;;;;;;;5.38;3.92;;;;;;;11.91;100.00;98536.69;5035622;28;20030;-61
2023/10/21 03:44:05;;;;;;;8.27;4.20;;;;;;;11.92;100.00;98536.63;5035605;28;20156;-61
2023/10/21 03:46:30;;;;;;;9.50;4.32;;;;;;;11.92;100.00;98538.41;5035480;28;20029;-61
2023/10/21 03:48:56;;;;;;;7.45;3.95;;;;;;;11.94;100.00;98544.50;5035715;28;20025;-61
2023/10/21 03:51:22;;;;;;;7.35;3.70;;;;;;;11.93;100.00;98553.34;5035608;28;20031;-61
2023/10/21 03:53:48;;;;;;;7.53;3.42;;;;;;;11.93;100.00;98550.72;5035619;28;20450;-61
2023/10/21 03:56:14;;;;;;;8.35;3.78;;;;;;;11.97;100.00;98558.50;5035390;28;20100;-61
2023/10/21 03:58:40;;;;;;;5.85;3.80;;;;;;;11.99;100.00;98561.09;5035396;28;20077;-61
2023/10/21 04:01:06;;;;;;;6.75;3.55;;;;;;;11.99;100.00;98561.97;5033895;28;20025;-61
2023/10/21 04:03:32;;;;;;;13.25;4.13;;;;;;;12.00;100.00;98570.78;5035261;28;20468;-61
2023/10/21 04:05:58;;;;;;;9.05;3.95;;;;;;;12.00;100.00;98576.94;5035236;28;20029;-61
2023/10/21 04:08:25;;;;;;;10.18;4.45;;;;;;;12.02;100.00;98576.88;5035296;28;20502;-61
2023/10/21 04:10:52;;;;;;;6.75;3.83;;;;;;;12.00;100.00;98582.25;5035056;28;20112;-61
2023/10/21 04:13:18;;;;;;;8.05;4.00;;;;;;;11.99;100.00;98577.88;5035024;28;20029;-61
2023/10/21 04:15:44;;;;;;;16.85;4.35;;;;;;;11.99;100.00;98585.81;5034864;28;20029;-61
2023/10/21 04:18:09;;;;;;;5.93;3.55;;;;;;;11.99;100.00;98585.81;5034952;28;20018;-61
2023/10/21 04:20:34;;;;;;;6.53;3.92;;;;;;;12.00;100.00;98589.31;5034687;28;20056;-61
2023/10/21 04:23:00;;;;;;;7.13;3.53;;;;;;;12.02;100.00;98598.06;5034893;28;20029;-61
2023/10/21 04:25:27;;;;;;;8.25;3.65;;;;;;;12.03;100.00;98594.50;5033620;28;20022;-61
2023/10/21 04:27:52;;;;;;;10.68;3.75;;;;;;;12.03;100.00;98598.03;5034385;28;20037;-61
2023/10/21 04:30:18;;;;;;;8.75;3.97;;;;;;;12.03;100.00;98608.63;5034668;28;20029;-61
2023/10/21 04:32:43;;;;;;;8.88;4.00;;;;;;;12.05;100.00;98610.34;5034632;28;20101;-61
2023/10/21 04:35:09;;;;;;;6.15;3.50;;;;;;;12.07;100.00;98619.09;5034619;28;20039;-61
2023/10/21 04:37:35;;;;;;;9.25;3.55;;;;;;;12.08;100.00;98624.34;5034453;28;20117;-61
2023/10/21 04:40:02;;;;;;;10.57;3.63;;;;;;;12.10;100.00;98626.94;5035019;28;20026;-61
2023/10/21 04:42:28;;;;;;;7.32;3.72;;;;;;;12.09;100.00;98626.09;5034826;28;20033;-61
2023/10/21 04:44:53;;;;;;;10.45;3.78;;;;;;;12.10;100.00;98633.09;5034412;28;20162;-61
2023/10/21 04:47:18;;;;;;;11.02;3.60;;;;;;;12.10;100.00;98633.09;5034609;28;20111;-61
2023/10/21 04:49:44;;;;;;;8.73;3.90;;;;;;;12.09;100.00;98643.75;5034448;28;20050;-61
2023/10/21 04:52:17;;;;;;;12.15;3.90;;;;;;;12.06;100.00;98642.06;5034639;28;20021;-61
2023/10/21 04:54:43;;;;;;;5.88;3.60;;;;;;;12.09;100.00;98651.69;5034498;28;20057;-61
2023/10/21 04:57:10;;;;;;;9.00;3.67;;;;;;;12.07;100.00;98650.84;5034498;28;20049;-61
2023/10/21 04:59:36;;;;;;;7.50;3.90;;;;;;;12.08;100.00;98650.81;5034480;28;20029;-61
2023/10/21 05:02:03;;;;;;;9.68;3.70;;;;;;;12.07;100.00;98648.22;5034373;28;20037;-61
2023/10/21 05:04:29;;;;;;;7.15;3.42;;;;;;;12.07;100.00;98650.84;5032890;28;20036;-61
2023/10/21 05:06:54;;;;;;;7.32;3.60;;;;;;;12.05;100.00;98658.00;5034132;28;20030;-61
2023/10/21 05:09:20;;;;;;;6.80;3.55;;;;;;;12.03;100.00;98656.28;5033741;28;20102;-61
2023/10/21 05:11:45;;;;;;;7.80;3.50;;;;;;;12.03;100.00;98656.28;5034009;28;20034;-61
2023/10/21 05:14:10;;;;;;;6.90;3.25;;;;;;;12.00;100.00;98664.28;5032657;28;20080;-61
2023/10/21 05:16:36;;;;;;;7.00;3.50;;;;;;;11.99;100.00;98665.22;5034037;28;20109;-61
2023/10/21 05:19:01;;;;;;;11.30;3.50;;;;;;;11.99;100.00;98669.59;5033992;28;20032;-61
2023/10/21 05:21:27;;;;;;;7.47;3.70;;;;;;;11.98;100.00;98676.69;5033571;28;20057;-61
2023/10/21 05:23:53;;;;;;;5.95;3.50;;;;;;;11.94;100.00;98679.47;5033922;28;20436;-61
2023/10/21 05:26:19;;;;;;;7.90;3.50;;;;;;;11.95;100.00;98678.59;5033826;28;20040;-61
2023/10/21 05:28:45;;;;;;;7.82;3.50;;;;;;;11.93;100.00;98689.19;5033854;28;20030;-61
2023/10/21 05:31:10;;;;;;;9.90;3.70;;;;;;;11.95;100.00;98694.47;5032480;28;20120;-61
2023/10/21 05:33:36;;;;;;;7.05;3.60;;;;;;;11.93;100.00;98693.63;5033788;28;20025;-61
2023/10/21 05:36:01;;;;;;;7.47;3.50;;;;;;;11.93;100.00;98698.91;5033584;28;20406;-61
2023/10/21 05:38:27;;;;;;;10.43;3.55;;;;;;;11.90;100.00;98705.16;5032603;28;20037;-61
2023/10/21 05:40:52;;;;;;;10.13;3.60;;;;;;;11.92;100.00;98707.78;5033662;28;20032;-61
2023/10/21 05:43:18;;;;;;;7.50;3.80;;;;;;;11.92;100.00;98708.63;5033438;28;20026;-61
2023/10/21 05:45:43;;;;;;;12.40;3.75;;;;;;;11.94;100.00;98705.94;5032101;28;20024;-61
2023/10/21 05:48:12;;;;;;;10.02;3.80;;;;;;;11.95;100.00;98710.34;5033379;28;20025;-61
2023/10/21 05:50:37;;;;;;;6.80;3.75;;;;;;;11.97;100.00;98716.44;5033273;28;20033;-61
2023/10/21 05:53:03;;;;;;;6.78;3.20;;;;;;;12.01;100.00;98720.75;5033374;28;20064;-61
2023/10/21 05:55:29;;;;;;;7.43;3.22;;;;;;;12.03;100.00;98737.44;5033503;28;20553;-61
2023/10/21 05:57:54;;;;;;;10.35;3.78;;;;;;;12.04;100.00;98728.59;5033064;28;20036;-61
2023/10/21 06:00:20;;;;;;;10.60;4.00;;;;;;;12.10;100.00;98732.84;5033241;28;20026;-61
2023/10/21 06:02:45;;;;;;;10.15;4.00;;;;;;;12.13;100.00;98740.69;5032971;28;20076;-61
2023/10/21 06:05:12;;;;;;;6.97;3.70;;;;;;;12.16;100.00;98744.13;5033098;28;20026;-61
2023/10/21 06:07:37;;;;;;;10.90;3.70;;;;;;;12.17;100.00;98751.16;5033086;28;20033;-61
2023/10/21 06:10:04;;;;;;;8.98;3.35;;;;;;;12.17;100.00;98752.94;5033107;28;20033;-61
2023/10/21 06:12:32;;;;;;;9.60;3.95;;;;;;;12.20;100.00;98758.13;5032073;28;20060;-61
2023/10/21 06:14:58;;;;;;;9.48;3.88;;;;;;;12.21;100.00;98754.59;5033274;28;20087;-61
2023/10/21 06:17:23;;;;;;;7.68;3.38;;;;;;;12.23;100.00;98771.28;5032781;28;20536;-61
2023/10/21 06:19:49;;;;;;;10.02;3.88;;;;;;;12.24;100.00;98773.88;5032454;28;20048;-61
2023/10/21 06:22:14;;;;;;;9.25;3.78;;;;;;;12.26;100.00;98777.34;5032781;28;20029;-61
2023/10/21 06:24:40;;;;;;;8.85;3.95;;;;;;;12.29;100.00;98779.06;5032572;28;20035;-61
2023/10/21 06:27:07;;;;;;;11.45;3.80;;;;;;;12.31;100.00;98776.34;5032692;28;20033;-61
2023/10/21 06:29:33;;;;;;;7.43;3.78;;;;;;;12.37;100.00;98784.09;5032787;28;20402;-61
2023/10/21 06:31:59;;;;;;;12.50;3.95;;;;;;;12.38;100.00;98788.50;5032365;28;20033;-61
2023/10/21 06:34:25;;;;;;;9.73;3.67;;;;;;;12.44;100.00;98798.91;5032462;28;20083;-62
2023/10/21 06:36:50;;;;;;;13.15;3.67;;;;;;;12.46;100.00;98808.56;5032631;28;20049;-62
2023/10/21 06:39:16;;;;;;;9.32;3.63;;;;;;;12.50;100.00;98817.25;5032387;28;20038;-61
2023/10/21 06:41:41;;;;;;;8.60;3.30;;;;;;;12.52;100.00;98815.44;5032837;28;20022;-61
2023/10/21 06:44:08;;;;;;;7.07;3.40;;;;;;;12.54;100.00;98819.78;5032892;28;20472;-62
2023/10/21 06:46:34;;;;;;;11.65;3.55;;;;;;;12.60;100.00;98825.81;5032700;28;20039;-62
2023/10/21 06:48:59;;;;;;;11.30;3.00;;;;;;;12.64;100.00;98824.81;5032790;28;20034;-61
2023/10/21 06:51:26;;;;;;;9.93;3.15;;;;;;;12.68;100.00;98826.47;5035772;28;20083;-62
2023/10/21 06:53:51;;;;;;;8.00;3.20;;;;;;;12.72;100.00;98828.97;5036835;28;20033;-61
2023/10/21 06:56:17;;;;;;;7.78;2.97;;;;;;;12.75;100.00;98833.28;5036564;28;20394;-62
2023/10/21 06:58:47;;;;;;;7.45;2.88;;;;;;;12.81;100.00;98837.56;5036323;28;20067;-61
2023/10/21 07:01:12;;;;;;;14.00;3.10;;;;;;;12.83;100.00;98843.66;5036831;28;20467;-62
2023/10/21 07:03:38;;;;;;;12.30;3.10;;;;;;;12.86;100.00;98848.88;5035169;28;20022;-61
2023/10/21 07:06:03;;;;;;;8.15;2.80;;;;;;;12.86;100.00;98849.75;5035261;28;20064;-62
2023/10/21 07:08:29;;;;;;;7.53;2.78;;;;;;;12.89;100.00;98859.38;5036287;28;20033;-62
2023/10/21 07:10:54;;;;;;;6.03;2.70;;;;;;;12.94;100.00;98868.94;5036332;28;20464;-62
2023/10/21 07:13:20;;;;;;;5.53;2.42;;;;;;;12.94;100.00;98871.59;5035220;28;20041;-62
2023/10/21 07:15:47;;;;;;;5.05;2.60;;;;;;;12.95;100.00;98889.22;5036136;28;20490;-62
2023/10/21 07:18:12;;;;;;;5.80;2.33;;;;;;;12.99;100.00;98882.91;5036145;28;20475;-61
2023/10/21 07:20:38;;;;;;;6.03;2.63;;;;;;;12.97;100.00;98889.16;5035882;28;20052;-62
2023/10/21 07:23:04;;;;;;;7.22;2.65;;;;;;;12.95;100.00;98899.84;5036282;28;20037;-62
2023/10/21 07:25:30;;;;;;;4.45;2.35;;;;;;;12.93;100.00;98901.69;5036309;28;20116;-62
2023/10/21 07:27:55;;;;;;;7.70;2.78;;;;;;;12.92;100.00;98920.25;5035992;28;20041;-62
2023/10/21 07:30:26;;;;;;;6.13;2.28;;;;;;;12.92;100.00;98928.22;5035944;28;20036;-62
2023/10/21 07:32:52;;;;;;;4.25;2.00;;;;;;;12.91;100.00;98940.59;5035926;28;20029;-62
2023/10/21 07:35:17;;;;;;;4.53;1.70;;;;;;;12.88;100.00;98945.13;5035897;28;20026;-62
2023/10/21 07:37:46;;;;;;;3.95;1.80;;;;;;;12.85;100.00;98962.00;5035959;28;20514;-61
2023/10/21 07:40:13;;;;;;;3.75;1.65;;;;;;;12.83;100.00;98966.47;5036027;28;20029;-62
2023/10/21 07:42:38;;;;;;;2.08;1.35;;;;;;;12.81;100.00;98978.91;5036017;28;20101;-62
2023/10/21 07:45:05;;;;;;;2.10;1.50;;;;;;;12.82;100.00;98987.72;5035696;28;20141;-61
2023/10/21 07:47:31;;;;;;;2.40;1.65;;;;;;;12.82;100.00;98987.72;5035511;28;20025;-62
2023/10/21 07:49:56;;;;;;;1.75;1.27;;;;;;;12.84;100.00;99001.78;5035835;28;20124;-61
2023/10/21 07:52:22;;;;;;;2.67;1.30;;;;;;;12.88;100.00;98995.47;5035523;28;20029;-62
2023/10/21 07:54:47;;;;;;;2.45;1.77;;;;;;;12.88;100.00;99004.31;5035519;28;20116;-62
2023/10/21 07:57:13;;;;;;;1.98;1.50;;;;;;;12.93;100.00;99018.31;5035358;28;20021;-62
2023/10/21 07:59:39;;;;;;;2.38;1.58;;;;;;;12.97;100.00;99024.38;5035561;28;20395;-62
2023/10/21 08:02:05;;;;;;;2.92;1.70;;;;;;;12.97;100.00;99024.38;5034672;28;20079;-62
2023/10/21 08:04:31;;;;;;;4.40;1.70;;;;;;;13.01;100.00;99037.50;5035382;28;20108;-62
2023/10/21 08:06:57;;;;;;;4.30;1.52;;;;;;;13.03;100.00;99029.53;5035300;28;20038;-62
2023/10/21 08:09:23;;;;;;;2.50;1.60;;;;;;;13.10;100.00;99035.50;5035071;28;20026;-61
2023/10/21 08:11:48;;;;;;;2.70;1.63;;;;;;;13.13;100.00;99041.59;5035126;28;20029;-62
2023/10/21 08:14:14;;;;;;;2.30;1.50;;;;;;;13.19;100.00;99036.13;5035164;28;20450;-61
2023/10/21 08:16:40;;;;;;;2.67;1.48;;;;;;;13.25;100.00;99051.03;5035228;28;20021;-61
2023/10/21 08:19:05;;;;;;;1.50;1.27;;;;;;;13.35;100.00;99047.19;5035268;28;20388;-61
2023/10/21 08:21:33;;;;;;;1.40;1.23;;;;;;;13.60;100.00;99049.97;5034828;28;20491;-62
2023/10/21 08:24:07;;;;;;;2.13;1.40;;;;;;;13.81;100.00;99066.16;5034916;28;20034;-61
2023/10/21 08:26:33;;;;;;;2.25;1.27;;;;;;;13.94;100.00;99056.91;5035255;28;20060;-61
2023/10/21 08:28:59;;;;;;;2.28;1.35;;;;;;;14.23;100.00;99053.31;5034774;28;20486;-61
2023/10/21 08:31:24;;;;;;;3.13;1.40;;;;;;;14.48;100.00;99062.25;5034721;28;20018;-62
2023/10/21 08:33:53;;;;;;;3.25;1.45;;;;;;;14.81;100.00;99058.44;5034703;28;20017;-61
2023/10/21 08:36:20;;;;;;;2.50;1.40;;;;;;;14.91;100.00;99065.22;5035051;28;20026;-61
2023/10/21 08:38:50;;;;;;;1.90;1.33;;;;;;;15.05;100.00;99065.56;5033322;28;20471;-61
2023/10/21 08:41:16;;;;;;;2.55;1.20;;;;;;;15.17;96.23;99077.56;5034594;28;20557;-61
2023/10/21 08:43:50;;;;;;;2.95;1.60;;;;;;;15.20;96.89;99072.13;5033377;28;20056;-61
2023/10/21 08:46:17;;;;;;;1.98;1.25;;;;;;;15.14;93.83;99078.53;5034497;28;20061;-61
2023/10/21 08:48:47;;;;;;;4.45;1.70;;;;;;;15.07;95.38;99078.81;5034601;28;20038;-61
2023/10/21 08:51:17;;;;;;;3.03;1.38;;;;;;;15.13;94.53;99090.09;5034800;28;20056;-61
2023/10/21 08:53:46;;;;;;;3.72;1.55;;;;;;;15.05;92.70;99094.84;5034501;28;20495;-61
2023/10/21 08:56:12;;;;;;;2.95;1.30;;;;;;;14.86;92.94;99118.56;5034077;28;20056;-62
2023/10/21 08:58:38;;;;;;;4.25;1.67;;;;;;;14.64;92.29;99105.09;5033932;28;20039;-59
2023/10/21 09:01:03;;;;;;;2.97;1.33;;;;;;;14.53;93.36;99102.81;5033826;28;20033;-59
2023/10/21 09:03:29;;;;;;;2.63;1.30;;;;;;;14.43;93.17;99116.41;5037730;28;20475;-59
2023/10/21 09:06:11;;;;;;;3.08;1.33;;;;;;;14.50;93.87;99112.66;5053620;28;20033;-61
2023/10/21 09:08:41;;;;;;;4.47;1.45;;;;;;;14.59;93.62;99130.97;5054208;28;20127;-61
2023/10/21 09:11:11;;;;;;;3.63;1.55;;;;;;;14.66;94.79;99123.69;5054558;28;20033;-61
2023/10/21 09:13:38;;;;;;;3.00;1.50;;;;;;;14.63;93.53;99132.59;5053983;28;20105;-61
2023/10/21 09:16:17;;;;;;;4.50;1.45;;;;;;;14.81;93.88;99131.13;5052565;28;20482;-61
2023/10/21 09:19:06;;;;;;;2.60;1.40;;;;;;;15.12;91.51;99143.38;5054089;28;20505;-61
2023/10/21 09:21:36;;;;;;;3.65;1.45;;;;;;;15.30;90.50;99140.06;5053645;28;20052;-61
2023/10/21 09:24:06;;;;;;;2.42;1.48;;;;;;;15.44;89.41;99135.09;5053580;28;20111;-62
2023/10/21 09:26:42;;;;;;;4.07;1.90;;;;;;;15.73;89.26;99139.38;5053591;28;20024;-62
2023/10/21 09:29:29;;;;;;;3.70;1.45;;;;;;;15.75;87.15;99144.63;5053438;28;20028;-61
2023/10/21 09:31:56;;;;;;;5.97;1.80;;;;;;;15.85;86.78;99134.53;5053600;28;20028;-62
2023/10/21 09:34:31;;;;;;;4.70;1.70;;;;;;;15.89;84.58;99138.81;5052964;28;20535;-62
2023/10/21 09:37:02;;;;;;;9.52;1.67;;;;;;;15.83;85.44;99139.03;5052979;28;20029;-62
2023/10/21 09:39:33;;;;;;;6.07;1.88;;;;;;;15.79;86.96;99135.59;5052705;28;20033;-60
2023/10/21 09:42:00;;;;;;;4.88;1.80;;;;;;;15.64;85.83;99145.06;5052856;28;20044;-60
2023/10/21 09:44:26;;;;;;;5.70;1.58;;;;;;;15.69;84.82;99139.56;5052537;28;20044;-62
2023/10/21 09:46:54;;;;;;;4.20;1.55;;;;;;;15.84;84.67;99151.41;5052842;28;20478;-61
2023/10/21 09:49:23;;;;;;;3.08;1.40;;;;;;;15.85;84.35;99166.50;5053068;28;20071;-62
2023/10/21 09:52:13;;;;;;;4.63;1.60;;;;;;;16.11;84.88;99155.69;5053533;28;20086;-61
2023/10/21 09:55:07;;;;;;;2.50;1.38;;;;;;;16.35;82.39;99183.16;5053529;28;20033;-61
2023/10/21 09:57:36;;;;;;;5.22;1.70;;;;;;;16.30;80.89;99173.63;5053178;28;20470;-61
2023/10/21 10:00:02;;;;;;;3.00;1.60;;;;;;;16.11;80.84;99179.69;5053351;28;20029;-61
2023/10/21 10:02:30;;;;;;;3.83;1.58;;;;;;;15.77;80.13;99180.09;5053202;28;20052;-61
2023/10/21 10:04:57;;;;;;;5.68;1.80;;;;;;;15.69;82.10;99182.16;5051776;28;20039;-62
2023/10/21 10:07:23;;;;;;;4.65;1.60;;;;;;;15.87;81.10;99178.81;5052955;28;20025;-61
2023/10/21 10:09:49;;;;;;;3.90;1.65;;;;;;;15.68;79.24;99199.94;5052875;28;20390;-61
2023/10/21 10:12:23;;;;;;;6.25;1.80;;;;;;;15.60;81.36;99195.78;5052820;28;20068;-61
2023/10/21 10:14:49;;;;;;;4.82;1.42;;;;;;;15.75;80.01;99204.09;5053227;28;20025;-61
2023/10/21 10:17:52;;;;;;;3.13;1.48;;;;;;;16.00;77.99;99196.06;5052647;28;20032;-62
2023/10/21 10:20:24;;;;;;;5.68;1.65;;;;;;;16.19;78.27;99201.56;5052882;28;20053;-62
2023/10/21 10:23:07;;;;;;;8.30;1.98;;;;;;;16.02;77.09;99209.34;5053034;28;20095;-62
2023/10/21 10:25:38;;;;;;;5.07;1.83;;;;;;;15.90;77.74;99204.47;5052529;28;20033;-61
2023/10/21 10:28:19;;;;;;;3.53;1.60;;;;;;;15.97;78.90;99204.19;5052664;28;20032;-61
2023/10/21 10:30:49;;;;;;;5.63;1.70;;;;;;;16.18;76.85;99222.94;5052658;28;20479;-61
2023/10/21 10:33:17;;;;;;;4.30;1.70;;;;;;;16.44;77.81;99224.59;5052417;28;20021;-63
2023/10/21 10:35:53;;;;;;;5.13;1.88;;;;;;;16.66;75.03;99213.94;5051407;28;20087;-61
2023/10/21 10:38:34;;;;;;;3.83;1.70;;;;;;;16.56;73.75;99223.25;5052589;28;20024;-62
2023/10/21 10:41:14;;;;;;;9.07;2.15;;;;;;;16.69;73.70;99217.34;5052678;28;20033;-61
2023/10/21 10:43:44;;;;;;;6.03;1.90;;;;;;;16.86;72.78;99218.50;5052619;28;20036;-61
2023/10/21 10:46:15;;;;;;;4.85;1.80;;;;;;;17.12;71.82;99225.44;5052817;28;20025;-62
2023/10/21 10:48:42;;;;;;;5.55;1.60;;;;;;;17.25;71.60;99222.16;5052144;28;20486;-61
2023/10/21 10:51:14;;;;;;;8.05;1.95;;;;;;;17.39;69.62;99231.41;5052409;28;20029;-61
2023/10/21 10:53:40;;;;;;;4.22;1.80;;;;;;;17.27;68.66;99248.81;5042466;28;20076;-62
2023/10/21 10:56:09;;;;;;;4.93;1.77;;;;;;;17.07;69.49;99230.09;5039918;28;20076;-61
2023/10/21 10:58:35;;;;;;;10.38;2.17;;;;;;;17.03;71.19;99230.22;5043098;28;20064;-61
2023/10/21 11:01:01;;;;;;;6.53;2.08;;;;;;;16.95;71.87;99237.66;5041943;28;20079;-59
2023/10/21 11:03:28;;;;;;;9.35;2.38;;;;;;;17.05;70.71;99234.66;5040404;28;20026;-60
2023/10/21 11:05:55;;;;;;;5.53;1.77;;;;;;;17.13;72.02;99229.81;5042022;28;20036;-59
2023/10/21 11:08:21;;;;;;;7.38;2.10;;;;;;;17.17;70.23;99239.44;5041871;28;20025;-59
2023/10/21 11:10:47;;;;;;;5.30;2.00;;;;;;;16.97;70.51;99240.28;5038944;28;20057;-59
2023/10/21 11:13:13;;;;;;;5.88;2.00;;;;;;;16.75;70.28;99233.16;5045783;28;20032;-58
2023/10/21 11:15:44;;;;;;;6.32;2.15;;;;;;;16.57;70.28;99251.66;5042863;28;20026;-58
2023/10/21 11:18:13;;;;;;;9.02;2.05;;;;;;;16.35;71.49;99247.16;5040216;28;20033;-58
2023/10/21 11:20:48;;;;;;;5.65;1.98;;;;;;;16.32;71.62;99246.41;5038565;28;20462;-59
2023/10/21 11:23:26;;;;;;;6.80;2.03;;;;;;;16.32;73.71;99243.75;5038292;28;20018;-59
2023/10/21 11:25:54;;;;;;;6.57;2.05;;;;;;;16.30;72.18;99254.44;5040146;28;20026;-60
2023/10/21 11:28:20;;;;;;;7.00;1.98;;;;;;;16.36;72.71;99266.66;5040754;28;20024;-58